Time;durP1;ratioP1;P1;durP2;ratioP2;P2;SDS_P1;SDS_P2;PMS_P1;PMS_P2;Temp;Humidity;BMP_temperature;BMP_pressure;BME280_temperature;BME280_humidity;BME280_pressure;Samples;Min_cycle;Max_cycle;Signal;HPM_P1;HPM_P2
2021/01/16 00:00:19;;;;;;;2.40;1.55;;;20.00;22.60;;;;;;5033842;28;20162;-50
2021/01/16 00:02:45;;;;;;;1.48;1.38;;;20.00;22.60;;;;;;5033717;28;20156;-50
2021/01/16 00:05:15;;;;;;;1.37;1.27;;;20.00;22.60;;;;;;5033673;28;20219;-51
2021/01/16 00:07:45;;;;;;;1.40;1.25;;;20.00;22.60;;;;;;5033362;28;20159;-50
2021/01/16 00:10:13;;;;;;;1.50;1.40;;;20.00;22.60;;;;;;5033852;28;20689;-50
2021/01/16 00:12:49;;;;;;;2.03;1.83;;;20.00;22.60;;;;;;5033851;28;20298;-51
2021/01/16 00:15:15;;;;;;;1.50;1.38;;;20.00;22.60;;;;;;5033718;28;20178;-50
2021/01/16 00:17:41;;;;;;;1.30;1.20;;;20.00;22.60;;;;;;5033394;28;20180;-50
2021/01/16 00:20:07;;;;;;;1.80;1.70;;;20.00;22.60;;;;;;5033664;28;20160;-51
2021/01/16 00:22:33;;;;;;;1.38;1.27;;;20.00;22.60;;;;;;5033001;28;20158;-50
2021/01/16 00:24:58;;;;;;;2.10;1.90;;;19.90;22.10;;;;;;5033561;28;20160;-51
2021/01/16 00:27:26;;;;;;;1.20;1.10;;;19.90;22.60;;;;;;5033405;28;20622;-50
2021/01/16 00:29:52;;;;;;;1.80;1.70;;;19.90;22.50;;;;;;5033574;28;20615;-50
2021/01/16 00:32:18;;;;;;;1.63;1.40;;;19.90;22.60;;;;;;5033231;28;20266;-50
2021/01/16 00:34:43;;;;;;;1.60;1.50;;;19.90;22.60;;;;;;5035267;28;20187;-51
2021/01/16 00:37:09;;;;;;;1.43;1.30;;;19.90;22.60;;;;;;5037172;28;20183;-50
2021/01/16 00:39:35;;;;;;;1.30;1.20;;;19.90;22.60;;;;;;5037492;28;20159;-50
2021/01/16 00:42:00;;;;;;;1.57;1.47;;;19.90;22.60;;;;;;5037535;28;20251;-51
2021/01/16 00:44:26;;;;;;;1.60;1.50;;;19.90;22.60;;;;;;5037426;28;20164;-50
2021/01/16 00:46:51;;;;;;;1.70;1.47;;;19.90;22.60;;;;;;5037199;28;20190;-50
2021/01/16 00:49:17;;;;;;;1.87;1.37;;;19.90;22.60;;;;;;5037413;28;20211;-51
2021/01/16 00:51:45;;;;;;;1.40;1.30;;;19.90;22.60;;;;;;5037409;28;20278;-50
2021/01/16 00:54:11;;;;;;;1.40;1.30;;;19.90;22.60;;;;;;5036847;28;20234;-50
2021/01/16 00:56:38;;;;;;;1.80;1.70;;;19.90;22.60;;;;;;5037245;28;20330;-51
2021/01/16 00:59:04;;;;;;;1.73;1.63;;;19.90;22.60;;;;;;5037176;28;20160;-53
2021/01/16 01:01:29;;;;;;;1.33;1.23;;;19.90;22.60;;;;;;5033674;28;20184;-51
2021/01/16 01:03:55;;;;;;;1.40;1.30;;;19.90;22.60;;;;;;5037067;28;20485;-50
2021/01/16 01:06:20;;;;;;;2.07;1.27;;;19.90;22.60;;;;;;5036839;28;20223;-50
2021/01/16 01:08:47;;;;;;;1.40;1.30;;;19.90;22.60;;;;;;5036538;28;20214;-50
2021/01/16 01:11:12;;;;;;;1.50;1.40;;;19.90;22.60;;;;;;5037050;28;20156;-50
2021/01/16 01:13:41;;;;;;;1.37;1.27;;;19.90;22.60;;;;;;5036945;28;20170;-50
2021/01/16 01:16:07;;;;;;;1.80;1.70;;;19.90;22.60;;;;;;5037014;28;20192;-50
2021/01/16 01:18:32;;;;;;;1.47;1.37;;;19.90;22.60;;;;;;5036829;28;20648;-50
2021/01/16 01:20:58;;;;;;;1.63;1.53;;;19.90;22.60;;;;;;5036861;28;20160;-50
2021/01/16 01:23:23;;;;;;;1.50;1.40;;;19.90;22.70;;;;;;5036312;28;20202;-50
2021/01/16 01:25:49;;;;;;;1.50;1.40;;;19.90;22.60;;;;;;5036714;28;20164;-50
2021/01/16 01:28:15;;;;;;;1.20;1.10;;;19.90;22.60;;;;;;5036579;28;20171;-51
2021/01/16 01:30:40;;;;;;;2.10;1.30;;;19.80;22.60;;;;;;5004185;28;20242;-50
2021/01/16 01:33:16;;;;;;;1.50;1.40;;;19.90;22.70;;;;;;5036524;28;20239;-51
2021/01/16 01:35:43;;;;;;;1.27;1.15;;;19.80;22.60;;;;;;5036437;28;20566;-51
2021/01/16 01:38:17;;;;;;;1.73;1.10;;;19.80;22.20;;;;;;5035959;28;20167;-49
2021/01/16 01:40:44;;;;;;;1.58;1.48;;;19.80;22.60;;;;;;5036556;28;20159;-49
2021/01/16 01:43:11;;;;;;;1.67;1.58;;;19.80;22.60;;;;;;5036580;28;20211;-49
2021/01/16 01:45:36;;;;;;;1.83;1.35;;;19.80;22.70;;;;;;5035460;28;20201;-50
2021/01/16 01:48:03;;;;;;;1.53;1.43;;;19.80;22.70;;;;;;5036176;28;20164;-50
2021/01/16 01:50:30;;;;;;;1.38;1.27;;;19.80;22.60;;;;;;5036582;28;20156;-50
2021/01/16 01:52:56;;;;;;;1.55;1.45;;;19.80;22.70;;;;;;5035913;28;20247;-50
2021/01/16 01:55:22;;;;;;;1.50;1.40;;;19.80;22.70;;;;;;5036147;28;20207;-50
2021/01/16 01:57:56;;;;;;;1.20;1.10;;;19.80;22.60;;;;;;5035912;28;20192;-50
2021/01/16 02:00:23;;;;;;;1.63;1.48;;;19.80;22.60;;;;;;5036016;28;20175;-50
2021/01/16 02:02:49;;;;;;;2.90;1.60;;;19.80;22.60;;;;;;5035834;28;20222;-50
2021/01/16 02:05:15;;;;;;;2.00;1.50;;;19.80;22.60;;;;;;5035929;28;20709;-50
2021/01/16 02:07:41;;;;;;;1.60;1.50;;;19.80;22.70;;;;;;5035495;28;20163;-50
2021/01/16 02:10:10;;;;;;;2.10;1.50;;;19.80;22.60;;;;;;5035967;28;20166;-50
2021/01/16 02:12:44;;;;;;;1.38;1.27;;;19.80;22.60;;;;;;5035854;28;20407;-50
2021/01/16 02:15:19;;;;;;;1.45;1.23;;;19.80;22.60;;;;;;5035661;28;20155;-50
2021/01/16 02:17:50;;;;;;;1.73;1.63;;;19.80;22.60;;;;;;5035938;28;20187;-50
2021/01/16 02:20:26;;;;;;;1.33;1.23;;;19.80;22.60;;;;;;5035740;28;20167;-50
2021/01/16 02:22:52;;;;;;;1.38;1.27;;;19.80;22.60;;;;;;5034983;28;20155;-50
2021/01/16 02:25:30;;;;;;;3.00;1.10;;;19.80;22.60;;;;;;5035567;28;20167;-50
2021/01/16 02:28:01;;;;;;;1.70;1.50;;;19.80;23.20;;;;;;5035491;28;20144;-51
2021/01/16 02:30:27;;;;;;;1.33;1.23;;;19.80;22.60;;;;;;5035292;28;20259;-50
2021/01/16 02:32:55;;;;;;;2.40;1.75;;;19.80;22.60;;;;;;5035377;28;20148;-50
2021/01/16 02:35:22;;;;;;;1.75;1.55;;;19.80;22.60;;;;;;5035223;28;20164;-50
2021/01/16 02:38:09;;;;;;;1.33;1.23;;;19.80;22.70;;;;;;5034749;28;20192;-50
2021/01/16 02:40:41;;;;;;;1.40;1.30;;;19.80;22.60;;;;;;5035275;28;20207;-50
2021/01/16 02:43:34;;;;;;;1.25;1.15;;;19.80;22.70;;;;;;5035111;28;20155;-50
2021/01/16 02:46:21;;;;;;;1.42;1.20;;;19.80;22.60;;;;;;5035800;28;20180;-50
2021/01/16 02:49:24;;;;;;;1.40;1.30;;;19.80;22.60;;;;;;5035182;28;20160;-51
2021/01/16 02:52:08;;;;;;;1.85;1.70;;;19.80;22.70;;;;;;5035261;28;20179;-50
2021/01/16 02:54:38;;;;;;;1.40;1.30;;;19.80;22.60;;;;;;5035014;28;20160;-51
2021/01/16 02:57:06;;;;;;;1.70;1.60;;;19.80;23.10;;;;;;5034839;28;20237;-50
2021/01/16 02:59:38;;;;;;;1.58;1.00;;;19.90;22.60;;;;;;5017216;28;20172;-50
2021/01/16 03:02:05;;;;;;;1.23;1.13;;;19.90;22.70;;;;;;5034914;28;20180;-50
2021/01/16 03:04:32;;;;;;;1.60;1.50;;;19.90;22.70;;;;;;5034884;28;20670;-50
2021/01/16 03:06:59;;;;;;;1.50;1.40;;;19.90;22.60;;;;;;5034695;28;20223;-50
2021/01/16 03:09:25;;;;;;;2.33;1.40;;;19.90;22.70;;;;;;5034290;28;20160;-50
2021/01/16 03:11:52;;;;;;;1.65;1.55;;;19.90;22.70;;;;;;5034675;28;20610;-50
2021/01/16 03:14:20;;;;;;;1.40;1.30;;;19.90;22.70;;;;;;5034745;28;20172;-51
2021/01/16 03:17:05;;;;;;;1.55;1.45;;;19.90;22.60;;;;;;5034530;28;20190;-50
2021/01/16 03:19:32;;;;;;;3.45;1.30;;;19.90;22.60;;;;;;5034697;28;20162;-49
2021/01/16 03:21:58;;;;;;;1.33;1.23;;;19.90;22.60;;;;;;5034534;28;20170;-50
2021/01/16 03:24:24;;;;;;;1.27;1.13;;;19.90;22.60;;;;;;5034073;28;20160;-50
2021/01/16 03:26:49;;;;;;;1.40;1.17;;;19.90;22.60;;;;;;5016783;28;20624;-49
2021/01/16 03:29:15;;;;;;;1.80;1.37;;;19.90;22.60;;;;;;5034506;28;20385;-50
2021/01/16 03:31:41;;;;;;;1.33;1.20;;;19.90;22.60;;;;;;5034465;28;20598;-50
2021/01/16 03:34:06;;;;;;;1.33;1.23;;;19.90;22.60;;;;;;5034166;28;20164;-50
2021/01/16 03:36:32;;;;;;;1.53;1.40;;;19.90;22.60;;;;;;5034070;28;20322;-50
2021/01/16 03:38:58;;;;;;;1.70;1.60;;;19.90;22.60;;;;;;5033864;28;20183;-49
2021/01/16 03:41:23;;;;;;;1.47;1.27;;;19.90;22.60;;;;;;5034084;28;20247;-50
2021/01/16 03:43:49;;;;;;;1.27;1.20;;;19.90;22.60;;;;;;5034228;28;20171;-50
2021/01/16 03:46:15;;;;;;;1.43;1.33;;;19.90;23.20;;;;;;5034151;28;20164;-50
2021/01/16 03:48:41;;;;;;;1.70;1.60;;;19.90;22.60;;;;;;5034047;28;20159;-50
2021/01/16 03:51:06;;;;;;;1.60;1.50;;;19.90;22.60;;;;;;5034155;28;20168;-50
2021/01/16 03:53:32;;;;;;;1.00;0.90;;;19.90;22.60;;;;;;5033545;28;20612;-50
2021/01/16 03:55:58;;;;;;;1.50;1.40;;;19.90;22.60;;;;;;5033770;28;20342;-50
2021/01/16 03:58:24;;;;;;;1.63;1.53;;;19.90;22.10;;;;;;5033897;28;20202;-50
2021/01/16 04:00:49;;;;;;;1.53;1.37;;;19.90;22.60;;;;;;5033803;28;20930;-50
2021/01/16 04:03:15;;;;;;;1.30;1.17;;;19.90;22.60;;;;;;5033867;28;20167;-50
2021/01/16 04:05:40;;;;;;;1.40;1.27;;;19.90;22.50;;;;;;5033861;28;20222;-50
2021/01/16 04:08:06;;;;;;;1.33;1.23;;;19.90;22.50;;;;;;5033415;28;20653;-50
2021/01/16 04:10:32;;;;;;;1.20;1.10;;;19.90;22.50;;;;;;5033292;28;20160;-51
2021/01/16 04:12:57;;;;;;;1.40;1.30;;;19.90;22.50;;;;;;5033681;28;20163;-49
2021/01/16 04:15:23;;;;;;;1.70;1.30;;;20.00;22.60;;;;;;5033797;28;20634;-50
2021/01/16 04:17:48;;;;;;;1.50;1.40;;;20.00;22.60;;;;;;5015842;28;20206;-49
2021/01/16 04:20:14;;;;;;;1.37;1.27;;;20.00;22.60;;;;;;5033752;28;20246;-50
2021/01/16 04:22:40;;;;;;;1.30;1.20;;;19.90;22.50;;;;;;5033080;28;20155;-50
2021/01/16 04:25:07;;;;;;;1.50;1.40;;;20.00;22.60;;;;;;5015925;28;20681;-49
2021/01/16 04:27:33;;;;;;;1.58;1.48;;;20.00;22.60;;;;;;5033481;28;20631;-50
2021/01/16 04:30:00;;;;;;;1.75;1.20;;;20.00;22.60;;;;;;5033672;28;20164;-50
2021/01/16 04:32:26;;;;;;;1.58;1.48;;;20.00;22.60;;;;;;5033441;28;20195;-50
2021/01/16 04:34:53;;;;;;;1.75;1.60;;;20.00;22.60;;;;;;5033405;28;20167;-50
2021/01/16 04:37:18;;;;;;;1.40;1.30;;;20.00;22.50;;;;;;5032848;28;20218;-50
2021/01/16 04:39:44;;;;;;;1.50;1.30;;;20.00;22.50;;;;;;5033579;28;20663;-50
2021/01/16 04:42:14;;;;;;;1.27;1.17;;;20.00;22.50;;;;;;5033288;28;20247;-50
2021/01/16 04:44:44;;;;;;;1.50;1.40;;;20.00;22.50;;;;;;5033522;28;20144;-50
2021/01/16 04:47:23;;;;;;;1.40;1.30;;;20.00;22.50;;;;;;5033599;28;20174;-51
2021/01/16 04:49:49;;;;;;;1.70;1.60;;;20.00;22.50;;;;;;5033492;28;20155;-50
2021/01/16 04:52:23;;;;;;;1.10;1.00;;;20.00;22.50;;;;;;5015458;28;20168;-50
2021/01/16 04:54:51;;;;;;;1.40;1.30;;;20.00;22.50;;;;;;5033407;28;20254;-50
2021/01/16 04:57:18;;;;;;;1.55;1.35;;;20.00;22.50;;;;;;5033393;28;20198;-50
2021/01/16 04:59:44;;;;;;;1.58;1.48;;;20.00;22.50;;;;;;5033395;28;20167;-50
2021/01/16 05:02:10;;;;;;;1.50;1.40;;;20.00;22.50;;;;;;5033134;28;20566;-50
2021/01/16 05:04:39;;;;;;;1.55;1.45;;;20.00;22.40;;;;;;5015758;28;20641;-50
2021/01/16 05:07:09;;;;;;;1.50;1.27;;;20.00;22.40;;;;;;5033343;28;20271;-49
2021/01/16 05:09:39;;;;;;;1.90;1.80;;;20.10;22.50;;;;;;5033584;28;20246;-50
2021/01/16 05:12:24;;;;;;;1.25;1.15;;;20.10;22.50;;;;;;5033170;28;20188;-51
2021/01/16 05:15:09;;;;;;;1.30;1.20;;;20.10;22.50;;;;;;5033305;28;20156;-51
2021/01/16 05:18:01;;;;;;;2.25;2.00;;;20.10;22.40;;;;;;5032781;28;20183;-50
2021/01/16 05:20:27;;;;;;;1.65;1.55;;;20.10;22.40;;;;;;5033207;28;20671;-50
2021/01/16 05:23:11;;;;;;;1.10;1.00;;;20.10;22.40;;;;;;5035863;28;20283;-50
2021/01/16 05:25:39;;;;;;;1.85;1.65;;;20.10;22.40;;;;;;5036916;28;20163;-50
2021/01/16 05:28:07;;;;;;;1.40;1.30;;;20.10;22.40;;;;;;5036822;28;20201;-50
2021/01/16 05:30:47;;;;;;;1.50;1.40;;;20.10;22.40;;;;;;5036633;28;20238;-50
2021/01/16 05:33:13;;;;;;;1.60;1.50;;;20.10;22.30;;;;;;5036502;28;20174;-50
2021/01/16 05:35:42;;;;;;;1.47;1.37;;;20.10;22.30;;;;;;5036345;28;20152;-50
2021/01/16 05:38:09;;;;;;;1.73;1.13;;;20.10;22.30;;;;;;5035988;28;20156;-50
2021/01/16 05:40:36;;;;;;;3.47;1.60;;;20.10;22.30;;;;;;5036458;28;20160;-50
2021/01/16 05:43:03;;;;;;;1.65;1.48;;;20.10;22.30;;;;;;5036327;28;20206;-50
2021/01/16 05:45:32;;;;;;;1.38;1.27;;;20.10;22.30;;;;;;5036256;28;20160;-49
2021/01/16 05:47:58;;;;;;;1.83;1.40;;;20.10;22.90;;;;;;5036310;28;20192;-49
2021/01/16 05:50:24;;;;;;;1.50;1.40;;;20.10;22.30;;;;;;5036292;28;20164;-50
2021/01/16 05:52:50;;;;;;;1.70;1.50;;;20.10;22.30;;;;;;5035665;28;20210;-50
2021/01/16 05:55:20;;;;;;;1.38;1.27;;;20.10;22.30;;;;;;5018448;28;20168;-50
2021/01/16 05:57:47;;;;;;;1.50;1.40;;;20.10;22.30;;;;;;5035961;28;20266;-50
2021/01/16 06:00:25;;;;;;;2.05;1.35;;;20.10;22.30;;;;;;5036096;28;20607;-50
2021/01/16 06:02:52;;;;;;;4.25;1.80;;;20.10;22.30;;;;;;5035863;28;20183;-50
2021/01/16 06:05:24;;;;;;;1.42;1.17;;;20.10;22.30;;;;;;5035864;28;20219;-50
2021/01/16 06:07:52;;;;;;;1.40;1.30;;;20.10;22.30;;;;;;5035482;28;20599;-49
2021/01/16 06:10:19;;;;;;;1.67;1.45;;;20.10;22.30;;;;;;5035929;28;20259;-50
2021/01/16 06:12:46;;;;;;;1.38;1.20;;;20.10;22.30;;;;;;5035868;28;20492;-49
2021/01/16 06:15:17;;;;;;;1.33;1.23;;;20.10;22.30;;;;;;5035898;28;20164;-50
2021/01/16 06:17:48;;;;;;;1.65;1.55;;;20.10;22.30;;;;;;5035733;28;20188;-50
2021/01/16 06:20:18;;;;;;;1.40;1.30;;;20.10;22.30;;;;;;5035609;28;20160;-50
2021/01/16 06:22:44;;;;;;;1.20;1.10;;;20.10;22.30;;;;;;5035112;28;20610;-49
2021/01/16 06:25:18;;;;;;;1.43;1.33;;;20.10;22.30;;;;;;5035739;28;20155;-49
2021/01/16 06:27:45;;;;;;;1.80;1.60;;;20.20;22.30;;;;;;5035563;28;20151;-49
2021/01/16 06:30:15;;;;;;;1.30;1.20;;;20.10;22.20;;;;;;5035598;28;20250;-50
2021/01/16 06:32:49;;;;;;;1.30;1.20;;;20.20;22.80;;;;;;5035116;28;20609;-50
2021/01/16 06:35:15;;;;;;;1.30;1.20;;;20.10;22.20;;;;;;5035310;28;20160;-49
2021/01/16 06:37:42;;;;;;;1.77;1.67;;;20.20;22.30;;;;;;5034948;28;20187;-51
2021/01/16 06:40:09;;;;;;;1.48;1.38;;;20.20;22.30;;;;;;5035369;28;20152;-50
2021/01/16 06:42:37;;;;;;;1.35;1.25;;;20.20;22.20;;;;;;5035265;28;20148;-50
2021/01/16 06:45:06;;;;;;;1.80;1.70;;;20.20;22.20;;;;;;5035293;28;20239;-50
2021/01/16 06:47:36;;;;;;;1.10;1.10;;;20.20;22.20;;;;;;5035150;28;20163;-50
2021/01/16 06:50:07;;;;;;;1.65;1.48;;;20.20;22.30;;;;;;5035179;28;20198;-50
2021/01/16 06:52:37;;;;;;;1.40;1.30;;;20.20;22.20;;;;;;5017026;28;20211;-49
2021/01/16 06:55:07;;;;;;;1.75;1.65;;;20.20;22.30;;;;;;5034816;28;20175;-50
2021/01/16 06:57:33;;;;;;;1.83;1.73;;;20.20;22.20;;;;;;5034683;28;20187;-51
2021/01/16 07:00:01;;;;;;;1.30;1.20;;;20.20;22.20;;;;;;5035101;28;20171;-50
2021/01/16 07:02:28;;;;;;;1.63;1.52;;;20.20;22.30;;;;;;5034805;28;20172;-50
2021/01/16 07:05:01;;;;;;;1.50;1.40;;;20.20;22.20;;;;;;5034595;28;20158;-50
2021/01/16 07:07:40;;;;;;;1.30;1.20;;;20.20;22.20;;;;;;5034289;28;20155;-49
2021/01/16 07:10:11;;;;;;;1.70;1.50;;;20.20;22.20;;;;;;5034977;28;20164;-50
2021/01/16 07:12:40;;;;;;;1.45;1.35;;;20.20;22.20;;;;;;5034552;28;20194;-51
2021/01/16 07:15:07;;;;;;;1.80;1.70;;;20.20;22.20;;;;;;5034669;28;20163;-49
2021/01/16 07:17:33;;;;;;;1.90;1.35;;;20.20;22.20;;;;;;5034552;28;20195;-49
2021/01/16 07:19:59;;;;;;;1.80;1.70;;;20.20;22.20;;;;;;5034724;28;20167;-50
2021/01/16 07:22:33;;;;;;;1.33;1.23;;;20.20;22.20;;;;;;5034113;28;20156;-49
2021/01/16 07:25:01;;;;;;;1.20;1.10;;;20.20;22.20;;;;;;5034581;28;20160;-50
2021/01/16 07:27:26;;;;;;;3.13;1.35;;;20.20;22.20;;;;;;5034398;28;20160;-50
2021/01/16 07:29:57;;;;;;;1.40;1.30;;;20.20;22.20;;;;;;5034352;28;20559;-50
2021/01/16 07:32:49;;;;;;;2.17;1.60;;;20.20;22.20;;;;;;5033965;28;20148;-49
2021/01/16 07:35:25;;;;;;;1.20;1.10;;;20.20;22.70;;;;;;5034258;28;20152;-51
2021/01/16 07:37:54;;;;;;;1.42;1.33;;;20.20;22.20;;;;;;5016065;28;20285;-50
2021/01/16 07:40:22;;;;;;;1.70;1.52;;;20.20;22.10;;;;;;5034321;28;20178;-49
2021/01/16 07:43:00;;;;;;;1.25;1.15;;;20.20;22.10;;;;;;5034148;28;20183;-50
2021/01/16 07:45:28;;;;;;;2.40;1.98;;;20.30;22.20;;;;;;5033514;28;20156;-49
2021/01/16 07:47:56;;;;;;;1.70;1.60;;;20.30;22.20;;;;;;5034057;28;20160;-50
2021/01/16 07:50:28;;;;;;;1.35;1.25;;;20.30;22.20;;;;;;5033923;28;20690;-50
2021/01/16 07:53:02;;;;;;;2.03;1.60;;;20.30;22.20;;;;;;5033559;28;20171;-49
2021/01/16 07:55:46;;;;;;;1.60;1.50;;;20.30;22.10;;;;;;5033971;28;20224;-49
2021/01/16 07:58:33;;;;;;;1.73;1.30;;;20.30;22.10;;;;;;5033825;28;20209;-50
2021/01/16 08:01:00;;;;;;;1.73;1.45;;;20.30;22.10;;;;;;5033963;28;20574;-48
2021/01/16 08:03:34;;;;;;;1.67;1.58;;;20.30;22.10;;;;;;5033769;28;20160;-50
2021/01/16 08:06:41;;;;;;;1.85;1.73;;;20.30;22.10;;;;;;5033603;28;20218;-50
2021/01/16 08:09:16;;;;;;;1.55;1.30;;;20.30;22.10;;;;;;5008396;28;20605;-50
2021/01/16 08:11:49;;;;;;;1.73;1.48;;;20.30;22.10;;;;;;5033873;28;20250;-49
2021/01/16 08:14:19;;;;;;;1.67;1.58;;;20.30;22.10;;;;;;5033494;28;20214;-50
2021/01/16 08:17:07;;;;;;;1.48;1.38;;;20.40;22.10;;;;;;5033718;28;20202;-50
2021/01/16 08:19:51;;;;;;;1.40;1.30;;;20.40;22.10;;;;;;5019477;28;20186;-50
2021/01/16 08:22:18;;;;;;;1.73;1.40;;;20.40;22.00;;;;;;5033052;28;20147;-50
2021/01/16 08:24:56;;;;;;;1.50;1.33;;;20.40;22.00;;;;;;5033551;28;20159;-50
2021/01/16 08:27:24;;;;;;;1.65;1.55;;;20.40;22.00;;;;;;5033438;28;20652;-50
2021/01/16 08:29:50;;;;;;;1.40;1.30;;;20.40;22.00;;;;;;5033621;28;20168;-50
2021/01/16 08:32:16;;;;;;;1.30;1.20;;;20.40;22.00;;;;;;5033571;28;20255;-50
2021/01/16 08:34:56;;;;;;;1.60;1.50;;;20.40;22.00;;;;;;5033523;28;20897;-50
2021/01/16 08:37:37;;;;;;;1.55;1.45;;;20.40;22.00;;;;;;5032848;28;20487;-50
2021/01/16 08:40:08;;;;;;;1.60;1.50;;;20.40;22.00;;;;;;5033354;28;20184;-49
2021/01/16 08:42:48;;;;;;;1.63;1.52;;;20.50;22.00;;;;;;5033281;28;20148;-50
2021/01/16 08:45:16;;;;;;;1.60;1.50;;;20.50;22.00;;;;;;5033037;28;20206;-50
2021/01/16 08:47:55;;;;;;;1.50;1.40;;;20.50;21.90;;;;;;5033116;28;20163;-50
2021/01/16 08:50:26;;;;;;;1.80;1.70;;;20.50;21.90;;;;;;5033356;28;20198;-50
2021/01/16 08:52:52;;;;;;;1.70;1.50;;;20.50;21.90;;;;;;5032869;28;20179;-49
2021/01/16 08:55:29;;;;;;;1.50;1.40;;;20.50;21.90;;;;;;5034336;28;20202;-50
2021/01/16 08:58:11;;;;;;;3.28;2.58;;;20.50;21.90;;;;;;5037006;28;20532;-51
2021/01/16 09:00:38;;;;;;;1.17;1.08;;;20.50;21.80;;;;;;5036954;28;20159;-50
2021/01/16 09:03:21;;;;;;;1.77;1.67;;;20.50;21.80;;;;;;5019167;28;20519;-50
2021/01/16 09:06:00;;;;;;;2.10;2.00;;;20.50;21.80;;;;;;5036809;28;20235;-50
2021/01/16 09:08:27;;;;;;;1.80;1.70;;;20.60;21.80;;;;;;5036547;28;20633;-49
2021/01/16 09:11:04;;;;;;;1.55;1.45;;;20.60;21.80;;;;;;5037059;28;20242;-50
2021/01/16 09:13:32;;;;;;;1.83;1.73;;;20.60;21.80;;;;;;5036894;28;20164;-51
2021/01/16 09:15:58;;;;;;;1.45;1.35;;;20.60;21.70;;;;;;5036724;28;20673;-50
2021/01/16 09:18:25;;;;;;;1.60;1.50;;;20.60;21.70;;;;;;5036822;28;20196;-51
2021/01/16 09:20:54;;;;;;;1.40;1.30;;;20.60;21.70;;;;;;5036970;28;20159;-49
2021/01/16 09:23:24;;;;;;;1.60;1.50;;;20.60;21.70;;;;;;5036227;28;20499;-50
2021/01/16 09:25:51;;;;;;;1.65;1.55;;;20.70;21.70;;;;;;5036815;28;20152;-50
2021/01/16 09:28:37;;;;;;;1.40;1.30;;;20.70;21.70;;;;;;5036390;28;20148;-50
2021/01/16 09:31:15;;;;;;;1.60;1.50;;;20.70;21.60;;;;;;5036184;28;20224;-50
2021/01/16 09:33:45;;;;;;;1.50;1.40;;;20.70;21.60;;;;;;5036277;28;20159;-50
2021/01/16 09:36:11;;;;;;;1.48;1.38;;;20.70;21.60;;;;;;5036251;28;20187;-51
2021/01/16 09:38:40;;;;;;;1.38;1.27;;;20.70;22.20;;;;;;5035942;28;20239;-49
2021/01/16 09:41:06;;;;;;;1.77;1.67;;;20.70;21.60;;;;;;5036432;28;20164;-50
2021/01/16 09:43:41;;;;;;;2.13;2.03;;;20.70;21.50;;;;;;5036185;28;20210;-50
2021/01/16 09:46:07;;;;;;;2.28;2.08;;;20.70;21.50;;;;;;5036329;28;20339;-49
2021/01/16 09:48:42;;;;;;;1.85;1.75;;;20.80;21.50;;;;;;5036132;28;20156;-50
2021/01/16 09:51:09;;;;;;;1.80;1.70;;;20.80;21.50;;;;;;5036240;28;20163;-49
2021/01/16 09:53:36;;;;;;;2.20;2.00;;;20.80;21.40;;;;;;5035623;28;20190;-49
2021/01/16 09:56:02;;;;;;;1.40;1.30;;;20.80;21.40;;;;;;5035985;28;20260;-49
2021/01/16 09:58:35;;;;;;;1.48;1.38;;;20.80;21.40;;;;;;5018024;28;20183;-49
2021/01/16 10:01:18;;;;;;;1.75;1.60;;;20.80;21.30;;;;;;5036019;28;20203;-50
2021/01/16 10:03:45;;;;;;;1.73;1.63;;;20.80;21.30;;;;;;5035930;28;20152;-49
2021/01/16 10:06:13;;;;;;;1.60;1.50;;;20.90;21.30;;;;;;5035749;28;20218;-49
2021/01/16 10:08:42;;;;;;;2.25;2.05;;;20.80;21.30;;;;;;5034884;28;20239;-50
2021/01/16 10:11:08;;;;;;;1.95;1.83;;;20.90;21.30;;;;;;5035819;28;20163;-50
2021/01/16 10:13:38;;;;;;;1.67;1.57;;;20.90;21.30;;;;;;5035435;28;20239;-50
2021/01/16 10:16:05;;;;;;;1.50;1.40;;;20.90;21.20;;;;;;5035756;28;20460;-50
2021/01/16 10:18:34;;;;;;;1.88;1.77;;;20.90;21.20;;;;;;5035369;28;20614;-52
2021/01/16 10:21:05;;;;;;;1.58;1.48;;;20.90;21.20;;;;;;5035869;28;20183;-50
2021/01/16 10:23:34;;;;;;;2.35;2.15;;;20.90;21.10;;;;;;5035141;28;20148;-50
2021/01/16 10:26:02;;;;;;;1.63;1.52;;;20.90;21.00;;;;;;5035497;28;20201;-50
2021/01/16 10:28:30;;;;;;;1.60;1.45;;;21.00;20.90;;;;;;5035251;28;20152;-49
2021/01/16 10:31:01;;;;;;;1.75;1.65;;;21.00;20.90;;;;;;5035442;28;20156;-49
2021/01/16 10:33:37;;;;;;;1.55;1.45;;;21.00;20.90;;;;;;5035334;28;20602;-51
2021/01/16 10:36:14;;;;;;;1.58;1.48;;;21.10;21.00;;;;;;5035238;28;20243;-50
2021/01/16 10:38:44;;;;;;;1.90;1.80;;;21.10;21.00;;;;;;5034890;28;20229;-50
2021/01/16 10:41:30;;;;;;;1.63;1.52;;;21.10;21.00;;;;;;5035243;28;20156;-50
2021/01/16 10:44:01;;;;;;;1.67;1.58;;;21.10;21.00;;;;;;5035159;28;20144;-50
2021/01/16 10:46:35;;;;;;;1.70;1.60;;;21.20;20.60;;;;;;5035155;28;20167;-49
2021/01/16 10:49:25;;;;;;;1.70;1.60;;;21.20;21.10;;;;;;5035077;28;20249;-51
2021/01/16 10:51:52;;;;;;;1.80;1.70;;;21.20;21.10;;;;;;5035142;28;20159;-49
2021/01/16 10:54:19;;;;;;;1.63;1.40;;;21.20;21.10;;;;;;5034535;28;20274;-49
2021/01/16 10:57:06;;;;;;;1.95;1.85;;;21.30;20.60;;;;;;5016779;28;20650;-50
2021/01/16 10:59:33;;;;;;;1.50;1.40;;;21.30;21.10;;;;;;5034145;28;20192;-49
2021/01/16 11:02:08;;;;;;;1.70;1.60;;;21.30;21.00;;;;;;5034694;28;20204;-50
2021/01/16 11:04:46;;;;;;;2.20;1.85;;;21.30;20.90;;;;;;5016951;28;20240;-51
2021/01/16 11:07:26;;;;;;;1.95;1.80;;;21.30;20.90;;;;;;5033758;28;20310;-50
2021/01/16 11:10:07;;;;;;;1.55;1.45;;;21.30;20.80;;;;;;5034785;28;20155;-50
2021/01/16 11:12:33;;;;;;;1.73;1.63;;;21.30;20.80;;;;;;5034595;28;20159;-50
2021/01/16 11:15:00;;;;;;;1.80;1.70;;;21.30;20.80;;;;;;5034501;28;20663;-51
2021/01/16 11:17:46;;;;;;;1.60;1.50;;;21.30;20.70;;;;;;5034239;28;20191;-50
2021/01/16 11:20:48;;;;;;;1.60;1.50;;;21.30;20.70;;;;;;5016298;28;20187;-50
2021/01/16 11:23:47;;;;;;;1.88;1.58;;;21.30;20.80;;;;;;5033682;28;20174;-50
2021/01/16 11:26:14;;;;;;;1.65;1.55;;;21.40;20.80;;;;;;5034300;28;20203;-50
2021/01/16 11:28:55;;;;;;;1.90;1.80;;;21.40;20.80;;;;;;5034024;28;20163;-50
2021/01/16 11:31:33;;;;;;;2.33;1.80;;;21.40;20.70;;;;;;5034114;28;20155;-49
2021/01/16 11:34:16;;;;;;;2.03;1.80;;;21.40;20.70;;;;;;5034021;28;20160;-50
2021/01/16 11:37:00;;;;;;;2.70;2.50;;;21.40;20.30;;;;;;5034137;28;20223;-49
2021/01/16 11:39:52;;;;;;;6.85;4.13;;;21.40;20.10;;;;;;5033261;28;20155;-50
2021/01/16 11:42:19;;;;;;;8.35;6.75;;;21.40;19.80;;;;;;5034010;28;20164;-49
2021/01/16 11:44:58;;;;;;;8.35;7.30;;;21.40;19.80;;;;;;5033757;28;20166;-50
2021/01/16 11:47:27;;;;;;;16.13;6.95;;;21.40;19.60;;;;;;5033763;28;20155;-49
2021/01/16 11:49:52;;;;;;;7.38;6.50;;;21.40;19.70;;;;;;5033778;28;20164;-50
2021/01/16 11:52:18;;;;;;;9.13;6.30;;;21.40;19.70;;;;;;5015962;28;20214;-50
2021/01/16 11:54:44;;;;;;;7.47;5.50;;;21.40;19.60;;;;;;5033778;28;20729;-49
2021/01/16 11:57:11;;;;;;;6.87;5.33;;;21.40;19.60;;;;;;5033685;28;20235;-50
2021/01/16 11:59:40;;;;;;;7.78;5.15;;;21.40;19.50;;;;;;5033947;28;20167;-50
2021/01/16 12:02:18;;;;;;;5.72;4.57;;;21.40;19.50;;;;;;5033276;28;20176;-49
2021/01/16 12:04:45;;;;;;;6.82;4.15;;;21.40;19.50;;;;;;5033710;28;20160;-49
2021/01/16 12:07:17;;;;;;;4.25;3.85;;;21.40;19.40;;;;;;5015474;28;20265;-50
2021/01/16 12:09:45;;;;;;;8.32;4.47;;;21.30;19.40;;;;;;5033533;28;20156;-50
2021/01/16 12:12:12;;;;;;;4.75;4.10;;;21.30;19.50;;;;;;5033916;28;20172;-53
2021/01/16 12:14:39;;;;;;;4.47;3.85;;;21.30;19.70;;;;;;5033571;28;20164;-50
2021/01/16 12:17:10;;;;;;;3.33;3.03;;;21.30;19.70;;;;;;5033284;28;20223;-50
2021/01/16 12:19:37;;;;;;;3.70;3.40;;;21.30;19.70;;;;;;5033338;28;20156;-51
2021/01/16 12:22:07;;;;;;;5.75;3.70;;;21.30;19.80;;;;;;5033423;28;20152;-49
2021/01/16 12:24:33;;;;;;;4.38;3.55;;;21.30;19.80;;;;;;5033265;28;20607;-51
2021/01/16 12:27:01;;;;;;;5.53;3.72;;;21.30;19.90;;;;;;5033734;28;20167;-49
2021/01/16 12:29:41;;;;;;;3.78;3.47;;;21.30;19.90;;;;;;5033339;28;20240;-50
2021/01/16 12:32:15;;;;;;;3.05;2.40;;;21.30;19.90;;;;;;5033298;28;20160;-50
2021/01/16 12:34:52;;;;;;;4.72;2.90;;;21.30;20.00;;;;;;5015500;28;20262;-50
2021/01/16 12:37:26;;;;;;;3.13;2.83;;;21.30;20.00;;;;;;5032840;28;20710;-50
2021/01/16 12:39:51;;;;;;;3.90;3.05;;;21.30;20.00;;;;;;5033504;28;20164;-49
2021/01/16 12:42:18;;;;;;;3.00;2.70;;;21.30;20.00;;;;;;5033231;28;20606;-50
2021/01/16 12:44:43;;;;;;;3.42;3.13;;;21.30;20.00;;;;;;5033388;28;20160;-50
2021/01/16 12:47:17;;;;;;;5.83;3.07;;;21.30;20.10;;;;;;5033261;28;20175;-51
2021/01/16 12:49:48;;;;;;;3.35;2.85;;;21.30;20.10;;;;;;5033354;28;20164;-50
2021/01/16 12:52:27;;;;;;;5.05;2.75;;;21.30;20.10;;;;;;5032853;28;20546;-50
2021/01/16 12:55:11;;;;;;;6.60;3.20;;;21.30;20.10;;;;;;5033083;28;20626;-50
2021/01/16 12:57:37;;;;;;;5.00;3.20;;;21.30;20.10;;;;;;5032560;28;20191;-51
2021/01/16 13:00:06;;;;;;;3.58;3.08;;;21.30;20.10;;;;;;5032714;28;20148;-50
2021/01/16 13:02:32;;;;;;;11.40;3.58;;;21.30;20.10;;;;;;5032915;28;20179;-50
2021/01/16 13:05:03;;;;;;;4.35;3.10;;;21.30;20.20;;;;;;5033184;28;20156;-50